createdAt,value
2022-10-04T00:01:50.348Z,8.70
2022-10-04T00:04:23.619Z,8.07
2022-10-04T00:06:59.978Z,8.00
2022-10-04T00:09:36.137Z,7.80
2022-10-04T00:12:05.663Z,7.75
2022-10-04T00:14:39.839Z,7.45
2022-10-04T00:17:14.995Z,7.93
2022-10-04T00:19:47.835Z,8.38
2022-10-04T00:22:22.834Z,7.72
2022-10-04T00:25:07.838Z,8.18
2022-10-04T00:27:39.285Z,8.00
2022-10-04T00:30:06.711Z,7.45
2022-10-04T00:32:39.566Z,7.45
2022-10-04T00:35:25.011Z,7.70
2022-10-04T00:38:15.747Z,7.07
2022-10-04T00:40:51.657Z,7.22
2022-10-04T00:43:25.950Z,8.20
2022-10-04T00:45:56.876Z,7.90
2022-10-04T00:48:31.048Z,7.68
2022-10-04T00:51:05.053Z,7.90
2022-10-04T00:53:31.619Z,7.03
2022-10-04T00:56:03.651Z,7.90
2022-10-04T00:58:36.382Z,7.75
2022-10-04T01:01:04.726Z,7.32
2022-10-04T01:03:39.981Z,7.40
2022-10-04T01:06:11.088Z,7.53
2022-10-04T01:08:49.504Z,7.80
2022-10-04T01:11:26.820Z,7.95
2022-10-04T01:14:00.899Z,7.45
2022-10-04T01:16:30.025Z,7.50
2022-10-04T01:19:22.262Z,7.07
2022-10-04T01:22:07.541Z,7.22
2022-10-04T01:24:36.815Z,7.68
2022-10-04T01:27:04.229Z,7.38
2022-10-04T01:29:31.829Z,7.13
2022-10-04T01:32:00.959Z,7.05
2022-10-04T01:34:29.745Z,7.95
2022-10-04T01:37:00.146Z,7.82
2022-10-04T01:39:28.652Z,7.45
2022-10-04T01:42:10.727Z,7.57
2022-10-04T01:44:56.618Z,7.85
2022-10-04T01:47:31.207Z,7.20
2022-10-04T01:50:02.857Z,7.15
2022-10-04T01:52:35.649Z,7.03
2022-10-04T01:55:26.876Z,7.32
2022-10-04T01:58:10.849Z,7.45
2022-10-04T02:00:46.644Z,7.35
2022-10-04T02:03:21.556Z,7.63
2022-10-04T02:05:52.775Z,7.30
2022-10-04T02:08:26.621Z,8.23
2022-10-04T02:10:54.957Z,8.02
2022-10-04T02:13:24.439Z,7.95
2022-10-04T02:15:51.519Z,7.72
2022-10-04T02:18:21.072Z,7.47
2022-10-04T02:20:50.107Z,7.30
2022-10-04T02:23:19.414Z,8.32
2022-10-04T02:25:46.445Z,8.13
2022-10-04T02:28:15.440Z,8.73
2022-10-04T02:31:08.776Z,11.73
2022-10-04T02:33:44.942Z,8.15
2022-10-04T02:36:13.432Z,8.05
2022-10-04T02:38:57.014Z,8.20
2022-10-04T02:41:53.235Z,7.90
2022-10-04T02:44:22.808Z,7.85
2022-10-04T02:46:52.679Z,7.22
2022-10-04T02:49:22.668Z,8.43
2022-10-04T02:52:04.072Z,8.18
2022-10-04T02:54:38.916Z,8.07
2022-10-04T02:57:06.168Z,7.75
2022-10-04T02:59:35.523Z,8.45
2022-10-04T03:02:02.814Z,8.88
2022-10-04T03:04:38.253Z,7.67
2022-10-04T03:07:08.730Z,8.70
2022-10-04T03:09:41.710Z,8.32
2022-10-04T03:12:12.750Z,7.85
2022-10-04T03:14:40.099Z,7.90
2022-10-04T03:17:08.101Z,7.72
2022-10-04T03:22:08.655Z,8.60
2022-10-04T03:24:47.153Z,8.23
2022-10-04T03:27:21.904Z,10.30
2022-10-04T03:29:50.539Z,8.80
2022-10-04T03:32:19.382Z,8.13
2022-10-04T03:34:55.623Z,8.25
2022-10-04T03:37:22.807Z,8.35
2022-10-04T03:39:53.030Z,7.83
2022-10-04T03:42:25.825Z,8.48
2022-10-04T03:44:56.428Z,9.50
2022-10-04T03:47:30.625Z,8.88
2022-10-04T03:50:01.012Z,8.45
2022-10-04T03:52:33.100Z,8.88
2022-10-04T03:55:03.391Z,8.90
2022-10-04T03:57:31.074Z,8.52
2022-10-04T03:59:59.164Z,8.88
2022-10-04T04:02:46.161Z,8.63
2022-10-04T04:05:30.030Z,8.48
2022-10-04T04:08:07.099Z,8.88
2022-10-04T04:10:38.333Z,9.27
2022-10-04T04:13:24.142Z,9.32
2022-10-04T04:15:51.154Z,9.57
2022-10-04T04:18:23.545Z,8.30
2022-10-04T04:20:52.158Z,9.73
2022-10-04T04:23:36.366Z,9.05
2022-10-04T04:26:15.954Z,9.27
2022-10-04T04:28:51.408Z,9.82
2022-10-04T04:31:36.739Z,9.43
2022-10-04T04:34:13.818Z,9.38
2022-10-04T04:36:41.784Z,9.17
2022-10-04T04:39:34.876Z,9.13
2022-10-04T04:42:13.361Z,9.30
2022-10-04T04:44:56.002Z,9.55
2022-10-04T04:47:44.720Z,9.52
2022-10-04T04:50:15.960Z,9.02
2022-10-04T04:53:18.159Z,9.60
2022-10-04T04:56:05.512Z,8.90
2022-10-04T04:58:36.017Z,9.25
2022-10-04T05:01:04.665Z,9.25
2022-10-04T05:03:33.280Z,9.32
2022-10-04T05:06:03.000Z,9.45
2022-10-04T05:08:34.107Z,9.35
2022-10-04T05:11:13.045Z,9.02
2022-10-04T05:13:48.528Z,9.82
2022-10-04T05:16:43.899Z,29.83
2022-10-04T05:19:21.729Z,15.45
2022-10-04T05:24:30.581Z,10.68
2022-10-04T05:27:03.307Z,11.55
2022-10-04T05:29:39.624Z,9.07
2022-10-04T05:32:39.957Z,36.97
2022-10-04T05:35:21.839Z,19.77
2022-10-04T05:38:09.128Z,9.73
2022-10-04T05:40:52.336Z,10.02
2022-10-04T05:43:30.695Z,9.43
2022-10-04T05:46:23.066Z,10.70
2022-10-04T05:48:54.619Z,9.18
2022-10-04T05:51:27.842Z,9.32
2022-10-04T05:53:57.765Z,9.75
2022-10-04T05:57:16.195Z,10.77
2022-10-04T06:00:08.898Z,10.73
2022-10-04T06:03:09.812Z,10.85
2022-10-04T06:05:54.045Z,10.15
2022-10-04T06:08:29.571Z,9.25
2022-10-04T06:11:09.793Z,10.73
2022-10-04T06:13:52.795Z,10.80
2022-10-04T06:16:57.349Z,11.10
2022-10-04T06:19:49.125Z,10.20
2022-10-04T06:22:19.554Z,11.45
2022-10-04T06:25:00.614Z,10.85
2022-10-04T06:27:37.184Z,10.40
2022-10-04T06:33:58.682Z,10.30
2022-10-04T06:36:48.903Z,10.02
2022-10-04T06:39:39.583Z,9.93
2022-10-04T06:42:19.136Z,10.15
2022-10-04T06:45:07.521Z,9.57
2022-10-04T06:48:01.169Z,9.77
2022-10-04T06:51:02.660Z,9.25
2022-10-04T06:53:58.445Z,9.40
2022-10-04T06:57:10.196Z,9.52
2022-10-04T06:59:52.692Z,9.18
2022-10-04T07:02:22.238Z,9.23
2022-10-04T07:05:15.741Z,8.50
2022-10-04T07:07:47.695Z,8.15
2022-10-04T07:10:31.131Z,8.50
2022-10-04T07:13:03.718Z,8.23
2022-10-04T07:15:50.562Z,10.13
2022-10-04T07:18:46.090Z,8.07
2022-10-04T07:21:15.962Z,8.75
2022-10-04T07:24:01.865Z,8.05
2022-10-04T07:26:50.354Z,10.07
2022-10-04T07:29:22.386Z,7.90
2022-10-04T07:32:34.205Z,8.23
2022-10-04T07:35:09.836Z,8.93
2022-10-04T07:38:00.308Z,8.63
2022-10-04T07:40:45.085Z,8.18
2022-10-04T07:43:21.213Z,8.73
2022-10-04T07:45:49.167Z,8.55
2022-10-04T07:50:50.595Z,9.48
2022-10-04T07:53:27.770Z,10.63
2022-10-04T07:56:05.091Z,8.23
2022-10-04T07:58:56.471Z,7.43
2022-10-04T08:01:47.762Z,7.65
2022-10-04T08:04:32.735Z,7.13
2022-10-04T08:07:10.730Z,6.60
2022-10-04T08:09:40.278Z,7.53
2022-10-04T08:12:37.853Z,8.82
2022-10-04T08:15:31.126Z,6.35
2022-10-04T08:18:21.599Z,7.40
2022-10-04T08:20:55.108Z,7.47
2022-10-04T08:23:48.747Z,7.22
2022-10-04T08:26:22.930Z,6.75
2022-10-04T08:29:07.974Z,7.18
2022-10-04T08:31:53.328Z,6.18
2022-10-04T08:34:47.914Z,7.30
2022-10-04T08:37:38.563Z,7.18
2022-10-04T08:40:12.744Z,6.82
2022-10-04T08:42:42.483Z,7.18
2022-10-04T08:45:24.504Z,6.50
2022-10-04T08:48:46.449Z,7.03
2022-10-04T08:52:07.409Z,6.88
2022-10-04T08:54:36.819Z,6.50
2022-10-04T08:57:17.249Z,5.85
2022-10-04T09:00:13.650Z,5.68
2022-10-04T09:02:50.458Z,5.07
2022-10-04T09:06:08.441Z,5.17
2022-10-04T09:08:40.705Z,5.20
2022-10-04T09:11:22.258Z,5.43
2022-10-04T09:14:07.153Z,4.55
2022-10-04T09:16:47.526Z,4.75
2022-10-04T09:19:35.570Z,4.05
2022-10-04T09:22:18.082Z,4.20
2022-10-04T09:25:05.108Z,4.50
2022-10-04T09:27:56.994Z,4.25
2022-10-04T09:30:33.214Z,4.20
2022-10-04T09:33:08.858Z,4.60
2022-10-04T09:35:59.810Z,3.80
2022-10-04T09:39:29.594Z,4.22
2022-10-04T09:42:12.985Z,4.40
2022-10-04T09:44:54.798Z,4.18
2022-10-04T09:47:31.276Z,3.65
2022-10-04T09:50:18.861Z,4.15
2022-10-04T09:53:00.510Z,3.85
2022-10-04T09:55:42.851Z,3.70
2022-10-04T09:58:31.292Z,4.15
2022-10-04T10:01:23.239Z,3.90
2022-10-04T10:03:53.047Z,3.70
2022-10-04T10:06:28.521Z,3.28
2022-10-04T10:09:10.363Z,3.20
2022-10-04T10:12:04.713Z,3.95
2022-10-04T10:14:52.801Z,3.17
2022-10-04T10:17:40.604Z,4.80
2022-10-04T10:20:27.107Z,3.50
2022-10-04T10:23:24.784Z,2.77
2022-10-04T10:26:22.975Z,2.97
2022-10-04T10:29:07.714Z,2.85
2022-10-04T10:31:34.282Z,3.30
2022-10-04T10:34:35.138Z,2.78
2022-10-04T10:37:43.696Z,3.00
2022-10-04T10:40:31.775Z,3.05
2022-10-04T10:43:28.828Z,3.80
2022-10-04T10:48:35.801Z,3.70
2022-10-04T10:51:30.891Z,2.95
2022-10-04T10:54:36.243Z,2.80
2022-10-04T10:57:30.633Z,3.20
2022-10-04T11:00:17.585Z,3.42
2022-10-04T11:02:50.834Z,3.17
2022-10-04T11:05:36.932Z,2.95
2022-10-04T11:08:15.298Z,3.33
2022-10-04T11:11:01.399Z,3.10
2022-10-04T11:13:59.136Z,2.25
2022-10-04T11:17:04.132Z,2.80
2022-10-04T11:19:51.712Z,2.78
2022-10-04T11:22:42.581Z,3.05
2022-10-04T11:25:25.384Z,3.55
2022-10-04T11:28:04.207Z,2.90
2022-10-04T11:31:11.102Z,3.30
2022-10-04T11:36:43.149Z,3.55
2022-10-04T11:39:31.608Z,2.70
2022-10-04T11:42:26.370Z,2.95
2022-10-04T11:45:21.289Z,2.85
2022-10-04T11:48:20.259Z,3.10
2022-10-04T11:51:15.083Z,3.20
2022-10-04T11:53:58.416Z,3.45
2022-10-04T11:56:36.703Z,3.58
2022-10-04T11:59:30.324Z,2.60
2022-10-04T12:02:25.027Z,2.95
2022-10-04T12:05:25.092Z,3.08
2022-10-04T12:08:04.781Z,3.38
2022-10-04T12:10:43.289Z,3.78
2022-10-04T12:13:34.719Z,3.15
2022-10-04T12:16:36.306Z,3.28
2022-10-04T12:19:28.884Z,3.65
2022-10-04T12:21:58.407Z,3.60
2022-10-04T12:24:57.917Z,3.70
2022-10-04T12:27:54.033Z,3.00
2022-10-04T12:31:03.938Z,3.03
2022-10-04T12:33:36.533Z,2.70
2022-10-04T12:36:24.918Z,2.67
2022-10-04T12:39:31.809Z,2.70
2022-10-04T12:42:16.124Z,2.80
2022-10-04T12:45:04.454Z,2.22
2022-10-04T12:48:02.406Z,2.65
2022-10-04T12:50:52.068Z,3.22
2022-10-04T12:53:46.764Z,4.00
2022-10-04T12:56:33.687Z,2.75
2022-10-04T13:02:14.172Z,1.98
2022-10-04T13:04:52.961Z,2.50
2022-10-04T13:07:37.642Z,2.58
2022-10-04T13:10:25.904Z,2.30
2022-10-04T13:13:05.653Z,2.17
2022-10-04T13:18:57.551Z,2.28
2022-10-04T13:21:39.254Z,2.22
2022-10-04T13:24:55.706Z,2.13
2022-10-04T13:27:40.334Z,2.30
2022-10-04T13:30:27.875Z,4.20
2022-10-04T13:33:06.657Z,2.78
2022-10-04T13:36:07.748Z,3.17
2022-10-04T13:38:35.145Z,2.20
2022-10-04T13:41:01.730Z,2.28
2022-10-04T13:44:01.090Z,2.13
2022-10-04T13:46:45.655Z,3.33
2022-10-04T13:49:35.687Z,2.72
2022-10-04T13:52:50.351Z,2.60
2022-10-04T13:55:59.468Z,2.30
2022-10-04T13:58:32.778Z,2.45
2022-10-04T14:01:15.538Z,2.28
2022-10-04T14:04:07.119Z,2.30
2022-10-04T14:06:33.742Z,3.20
2022-10-04T14:09:14.811Z,2.42
2022-10-04T14:11:50.226Z,2.50
2022-10-04T14:15:06.772Z,2.63
2022-10-04T14:17:57.747Z,2.38
2022-10-04T14:20:36.230Z,2.10
2022-10-04T14:23:33.977Z,2.55
2022-10-04T14:26:23.194Z,2.20
2022-10-04T14:29:08.352Z,3.13
2022-10-04T14:31:54.189Z,2.88
2022-10-04T14:34:44.815Z,2.60
2022-10-04T14:37:41.534Z,1.85
2022-10-04T14:40:27.262Z,2.00
2022-10-04T14:43:18.165Z,2.15
2022-10-04T14:46:09.938Z,2.00
2022-10-04T14:48:51.546Z,3.45
2022-10-04T14:51:45.480Z,2.42
2022-10-04T14:54:29.199Z,2.22
2022-10-04T14:57:43.791Z,8.57
2022-10-04T15:00:26.265Z,2.88
2022-10-04T15:03:16.397Z,2.53
2022-10-04T15:06:00.196Z,2.03
2022-10-04T15:08:47.633Z,2.28
2022-10-04T15:11:39.939Z,2.33
2022-10-04T15:14:35.789Z,2.08
2022-10-04T15:17:08.650Z,3.80
2022-10-04T15:19:59.570Z,2.28
2022-10-04T15:22:31.167Z,2.58
2022-10-04T15:24:58.390Z,2.40
2022-10-04T15:30:10.325Z,3.17
2022-10-04T15:32:52.182Z,4.05
2022-10-04T15:35:21.739Z,2.30
2022-10-04T15:37:52.685Z,9.10
2022-10-04T15:40:56.829Z,11.18
2022-10-04T15:43:58.511Z,2.45
2022-10-04T15:46:50.383Z,4.50
2022-10-04T15:49:52.765Z,3.78
2022-10-04T15:53:04.694Z,4.30
2022-10-04T15:55:38.317Z,3.28
2022-10-04T15:58:29.667Z,12.25
2022-10-04T16:01:13.348Z,2.72
2022-10-04T16:04:27.460Z,3.10
2022-10-04T16:07:33.029Z,2.40
2022-10-04T16:10:05.593Z,2.55
2022-10-04T16:13:00.779Z,3.08
2022-10-04T16:15:37.274Z,2.75
2022-10-04T16:18:27.202Z,3.27
2022-10-04T16:21:15.449Z,3.20
2022-10-04T16:23:44.070Z,3.20
2022-10-04T16:26:11.841Z,3.78
2022-10-04T16:28:53.368Z,4.57
2022-10-04T16:31:26.882Z,4.00
2022-10-04T16:34:07.280Z,4.07
2022-10-04T16:36:59.737Z,3.38
2022-10-04T16:40:03.209Z,3.55
2022-10-04T16:42:47.384Z,4.43
2022-10-04T16:46:11.632Z,3.97
2022-10-04T16:48:41.142Z,3.65
2022-10-04T16:51:13.624Z,4.03
2022-10-04T16:53:49.082Z,3.90
2022-10-04T16:56:22.645Z,3.78
2022-10-04T16:58:59.289Z,4.70
2022-10-04T17:01:43.660Z,5.57
2022-10-04T17:04:31.737Z,4.65
2022-10-04T17:07:02.622Z,4.32
2022-10-04T17:10:03.495Z,4.95
2022-10-04T17:12:45.694Z,13.98
2022-10-04T17:15:14.782Z,6.28
2022-10-04T17:18:14.406Z,6.53
2022-10-04T17:20:41.227Z,5.18
2022-10-04T17:23:29.331Z,4.27
2022-10-04T17:26:45.593Z,4.65
2022-10-04T17:29:46.623Z,4.32
2022-10-04T17:32:34.041Z,22.52
2022-10-04T17:37:54.777Z,4.50
2022-10-04T17:40:36.055Z,4.57
2022-10-04T17:43:32.791Z,4.03
2022-10-04T17:46:12.238Z,4.57
2022-10-04T17:49:10.266Z,3.97
2022-10-04T17:52:03.855Z,4.82
2022-10-04T17:58:48.542Z,5.60
2022-10-04T18:01:38.038Z,5.97
2022-10-04T18:04:30.539Z,5.00
2022-10-04T18:07:04.380Z,4.47
2022-10-04T18:09:42.233Z,4.70
2022-10-04T18:12:26.291Z,4.55
2022-10-04T18:15:07.427Z,4.38
2022-10-04T18:17:41.016Z,4.65
2022-10-04T18:20:27.153Z,4.30
2022-10-04T18:23:14.724Z,5.13
2022-10-04T18:25:41.805Z,12.00
2022-10-04T18:28:08.439Z,5.23
2022-10-04T18:30:54.119Z,6.05
2022-10-04T18:33:26.615Z,6.05
2022-10-04T18:36:13.758Z,5.03
2022-10-04T18:38:43.624Z,4.87
2022-10-04T18:41:15.980Z,5.25
2022-10-04T18:43:52.508Z,5.57
2022-10-04T18:46:21.698Z,5.43
2022-10-04T18:48:57.181Z,5.38
2022-10-04T18:51:40.662Z,5.50
2022-10-04T18:54:41.659Z,5.78
2022-10-04T18:57:24.798Z,6.53
2022-10-04T19:00:22.415Z,5.55
2022-10-04T19:02:57.855Z,6.13
2022-10-04T19:05:51.525Z,5.82
2022-10-04T19:08:30.836Z,6.70
2022-10-04T19:11:10.101Z,5.80
2022-10-04T19:13:36.742Z,5.65
2022-10-04T19:16:23.969Z,5.55
2022-10-04T19:19:14.765Z,6.13
2022-10-04T19:22:11.190Z,7.60
2022-10-04T19:24:43.901Z,6.13
2022-10-04T19:27:17.028Z,5.50
2022-10-04T19:30:05.331Z,6.25
2022-10-04T19:32:34.873Z,6.53
2022-10-04T19:35:11.833Z,5.68
2022-10-04T19:38:11.980Z,5.50
2022-10-04T19:40:48.815Z,4.82
2022-10-04T19:43:42.416Z,6.10
2022-10-04T19:46:36.366Z,7.13
2022-10-04T19:49:12.123Z,5.50
2022-10-04T19:51:51.232Z,6.05
2022-10-04T19:54:37.542Z,5.40
2022-10-04T19:57:09.645Z,5.40
2022-10-04T19:59:45.312Z,5.28
2022-10-04T20:02:13.706Z,5.32
2022-10-04T20:04:43.499Z,4.35
2022-10-04T20:07:26.672Z,5.07
2022-10-04T20:10:10.661Z,5.20
2022-10-04T20:12:41.862Z,5.03
2022-10-04T20:15:17.959Z,5.32
2022-10-04T20:17:47.676Z,4.80
2022-10-04T20:20:17.227Z,4.95
2022-10-04T20:22:49.832Z,5.57
2022-10-04T20:25:44.820Z,4.65
2022-10-04T20:28:27.366Z,5.68
2022-10-04T20:31:03.514Z,5.03
2022-10-04T20:33:51.186Z,5.20
2022-10-04T20:36:20.940Z,5.75
2022-10-04T20:38:54.643Z,5.18
2022-10-04T20:41:50.406Z,5.68
2022-10-04T20:44:41.673Z,5.97
2022-10-04T20:47:38.234Z,6.07
2022-10-04T20:50:13.163Z,7.67
2022-10-04T20:52:45.457Z,6.10
2022-10-04T20:55:28.357Z,6.68
2022-10-04T20:57:58.253Z,6.72
2022-10-04T21:00:26.620Z,7.53
2022-10-04T21:03:18.189Z,7.40
2022-10-04T21:06:09.202Z,7.20
2022-10-04T21:08:37.045Z,6.30
2022-10-04T21:13:57.764Z,5.97
2022-10-04T21:16:49.350Z,7.00
2022-10-04T21:19:35.894Z,6.07
2022-10-04T21:22:07.531Z,6.40
2022-10-04T21:24:35.918Z,6.25
2022-10-04T21:27:03.988Z,6.53
2022-10-04T21:29:31.365Z,6.00
2022-10-04T21:32:01.641Z,6.10
2022-10-04T21:34:51.827Z,6.10
2022-10-04T21:37:15.714Z,6.10
2022-10-04T21:39:42.708Z,6.38
2022-10-04T21:42:09.931Z,5.97
2022-10-04T21:44:36.960Z,6.70
2022-10-04T21:47:03.743Z,6.23
2022-10-04T21:49:32.672Z,6.53
2022-10-04T21:51:59.359Z,6.55
2022-10-04T21:54:25.964Z,6.53
2022-10-04T21:56:55.321Z,7.07
2022-10-04T21:59:21.992Z,5.93
2022-10-04T22:01:48.797Z,6.47
2022-10-04T22:04:15.735Z,6.03
2022-10-04T22:06:42.900Z,5.97
2022-10-04T22:09:10.540Z,5.90
2022-10-04T22:11:37.501Z,6.20
2022-10-04T22:14:04.406Z,5.93
2022-10-04T22:16:31.187Z,6.57
2022-10-04T22:18:57.894Z,6.30
2022-10-04T22:21:24.586Z,6.13
2022-10-04T22:23:51.175Z,5.93
2022-10-04T22:26:20.669Z,7.13
2022-10-04T22:28:52.508Z,6.35
2022-10-04T22:31:23.490Z,6.85
2022-10-04T22:33:50.942Z,6.32
2022-10-04T22:36:34.353Z,6.18
2022-10-04T22:39:10.451Z,6.43
2022-10-04T22:41:52.411Z,6.47
2022-10-04T22:44:25.314Z,5.95
2022-10-04T22:46:54.463Z,5.95
2022-10-04T22:49:27.002Z,6.18
2022-10-04T22:51:56.081Z,6.70
2022-10-04T22:54:25.916Z,6.53
2022-10-04T22:56:53.942Z,5.85
2022-10-04T22:59:23.088Z,6.30
2022-10-04T23:01:49.786Z,5.80
2022-10-04T23:04:23.213Z,6.10
2022-10-04T23:06:51.162Z,6.50
2022-10-04T23:11:44.990Z,6.17
2022-10-04T23:14:12.106Z,6.35
2022-10-04T23:16:39.080Z,6.60
2022-10-04T23:19:08.669Z,6.53
2022-10-04T23:21:38.033Z,7.13
2022-10-04T23:24:23.532Z,7.00
2022-10-04T23:26:57.860Z,6.93
2022-10-04T23:29:27.983Z,6.50
2022-10-04T23:31:55.923Z,8.40
2022-10-04T23:34:30.760Z,7.30
2022-10-04T23:36:57.730Z,6.80
2022-10-04T23:39:28.622Z,7.20
2022-10-04T23:41:55.683Z,7.88
2022-10-04T23:44:24.460Z,7.00
2022-10-04T23:46:51.855Z,7.43
2022-10-04T23:49:20.654Z,7.60
2022-10-04T23:51:48.233Z,6.90
2022-10-04T23:54:20.135Z,7.18
2022-10-04T23:56:48.287Z,7.53
